createdAt,value
2022-11-10T00:02:10.578Z,45.65
2022-11-10T00:07:14.173Z,47.78
2022-11-10T00:12:16.276Z,50.97
2022-11-10T00:17:18.336Z,51.40
2022-11-10T00:22:25.930Z,52.35
2022-11-10T00:27:28.573Z,52.72
2022-11-10T00:32:30.633Z,56.22
2022-11-10T00:37:34.144Z,46.90
2022-11-10T00:42:36.205Z,42.10
2022-11-10T00:47:41.291Z,42.35
2022-11-10T00:52:44.713Z,40.83
2022-11-10T00:57:52.214Z,42.45
2022-11-10T01:02:54.295Z,45.75
2022-11-10T01:07:59.557Z,44.67
2022-11-10T01:13:01.823Z,43.70
2022-11-10T01:18:03.896Z,39.60
2022-11-10T01:23:07.401Z,39.22
2022-11-10T01:28:09.537Z,35.40
2022-11-10T01:33:11.913Z,34.72
2022-11-10T01:38:15.361Z,28.77
2022-11-10T01:43:17.617Z,32.17
2022-11-10T01:48:26.979Z,31.33
2022-11-10T01:53:33.613Z,30.73
2022-11-10T01:58:40.420Z,32.63
2022-11-10T02:03:46.985Z,31.52
2022-11-10T02:08:51.702Z,30.10
2022-11-10T02:13:54.681Z,29.45
2022-11-10T02:18:59.905Z,25.45
2022-11-10T02:24:06.551Z,24.90
2022-11-10T02:29:09.791Z,21.55
2022-11-10T02:34:12.677Z,25.95
2022-11-10T02:39:16.257Z,24.83
2022-11-10T02:44:18.596Z,25.08
2022-11-10T02:49:20.666Z,25.30
2022-11-10T02:54:24.192Z,25.58
2022-11-10T02:59:26.283Z,23.70
2022-11-10T03:04:29.416Z,24.65
2022-11-10T03:09:35.893Z,24.73
2022-11-10T03:14:37.988Z,24.48
2022-11-10T03:19:40.066Z,26.75
2022-11-10T03:24:43.549Z,24.52
2022-11-10T03:29:45.631Z,24.17
2022-11-10T03:34:47.695Z,24.73
2022-11-10T03:39:51.212Z,24.77
2022-11-10T03:44:55.961Z,24.80
2022-11-10T03:49:58.035Z,25.23
2022-11-10T03:55:03.543Z,25.25
2022-11-10T04:00:07.699Z,21.70
2022-11-10T04:05:27.930Z,20.30
2022-11-10T04:10:31.698Z,21.10
2022-11-10T04:15:45.990Z,18.35
2022-11-10T04:20:48.731Z,19.77
2022-11-10T04:26:13.845Z,15.73
2022-11-10T04:31:16.267Z,18.45
2022-11-10T04:36:20.226Z,15.95
2022-11-10T04:41:27.231Z,15.45
2022-11-10T04:46:36.181Z,15.13
2022-11-10T04:51:40.171Z,15.60
2022-11-10T04:56:43.702Z,18.52
2022-11-10T05:01:45.938Z,14.63
2022-11-10T05:06:51.053Z,13.80
2022-11-10T05:11:54.581Z,16.90
2022-11-10T05:16:56.664Z,15.23
2022-11-10T05:21:58.772Z,14.65
2022-11-10T05:27:05.157Z,16.13
2022-11-10T05:32:08.085Z,14.85
2022-11-10T05:37:11.624Z,17.52
2022-11-10T05:42:15.192Z,17.95
2022-11-10T05:47:17.305Z,17.17
2022-11-10T05:52:19.676Z,17.27
2022-11-10T05:57:24.087Z,19.77
2022-11-10T06:02:27.587Z,18.52
2022-11-10T06:07:30.034Z,17.08
2022-11-10T06:12:34.062Z,13.98
2022-11-10T06:17:39.092Z,8.82
2022-11-10T06:22:41.388Z,7.80
2022-11-10T06:27:48.488Z,6.47
2022-11-10T06:32:51.006Z,6.25
2022-11-10T06:38:00.656Z,6.47
2022-11-10T06:43:04.552Z,7.00
2022-11-10T06:48:08.858Z,6.82
2022-11-10T06:53:13.607Z,6.97
2022-11-10T06:58:17.700Z,7.55
2022-11-10T07:03:20.020Z,7.45
2022-11-10T07:08:22.431Z,7.18
2022-11-10T07:13:26.659Z,7.00
2022-11-10T07:18:29.657Z,7.32
2022-11-10T07:23:32.366Z,6.85
2022-11-10T07:28:38.288Z,7.18
2022-11-10T07:33:40.390Z,6.70
2022-11-10T07:38:42.640Z,6.32
2022-11-10T07:43:46.084Z,6.20
2022-11-10T07:48:50.953Z,7.20
2022-11-10T07:53:53.044Z,6.28
2022-11-10T07:58:56.537Z,5.53
2022-11-10T08:03:58.650Z,5.05
2022-11-10T08:09:00.905Z,6.40
2022-11-10T08:14:04.383Z,4.82
2022-11-10T08:19:06.467Z,5.30
2022-11-10T08:24:09.147Z,4.93
2022-11-10T08:29:12.790Z,7.30
2022-11-10T08:34:14.925Z,4.18
2022-11-10T08:39:30.363Z,4.07
2022-11-10T08:44:40.891Z,4.20
2022-11-10T08:49:43.006Z,4.50
2022-11-10T08:54:45.065Z,4.20
2022-11-10T08:59:48.578Z,4.10
2022-11-10T09:04:50.730Z,3.75
2022-11-10T09:10:06.629Z,3.63
2022-11-10T09:15:12.280Z,4.25
2022-11-10T09:20:14.414Z,3.72
2022-11-10T09:25:16.632Z,4.30
2022-11-10T09:30:20.189Z,4.10
2022-11-10T09:35:22.417Z,4.22
2022-11-10T09:40:29.351Z,3.80
2022-11-10T09:45:38.917Z,3.25
2022-11-10T09:50:48.773Z,3.40
2022-11-10T09:55:54.688Z,4.50
2022-11-10T10:01:13.291Z,3.40
2022-11-10T10:06:17.048Z,4.32
2022-11-10T10:11:31.023Z,3.78
2022-11-10T10:16:40.687Z,4.43
2022-11-10T10:21:51.062Z,5.57
2022-11-10T10:26:55.144Z,3.90
2022-11-10T10:32:01.277Z,4.68
2022-11-10T10:37:03.801Z,4.63
2022-11-10T10:42:17.350Z,5.18
2022-11-10T10:47:20.999Z,5.00
2022-11-10T10:52:25.448Z,4.82
2022-11-10T10:57:29.533Z,5.03
2022-11-10T11:02:33.823Z,6.82
2022-11-10T11:07:35.917Z,4.75
2022-11-10T11:12:38.271Z,5.53
2022-11-10T11:17:41.796Z,4.95
2022-11-10T11:22:54.026Z,6.10
2022-11-10T11:28:06.207Z,5.20
2022-11-10T11:33:19.174Z,5.13
2022-11-10T11:38:30.349Z,4.85
2022-11-10T11:43:59.459Z,5.80
2022-11-10T11:49:22.135Z,8.05
2022-11-10T11:55:07.730Z,5.65
2022-11-10T12:00:13.188Z,4.97
2022-11-10T12:05:32.784Z,7.28
2022-11-10T12:10:45.547Z,6.47
2022-11-10T12:15:54.384Z,6.30
2022-11-10T12:21:18.853Z,5.88
2022-11-10T12:26:32.851Z,6.60
2022-11-10T12:31:38.293Z,8.02
2022-11-10T12:36:42.527Z,7.68
2022-11-10T12:41:47.372Z,7.90
2022-11-10T12:46:55.068Z,6.63
2022-11-10T12:52:07.694Z,7.90
2022-11-10T12:57:15.614Z,7.57
2022-11-10T13:02:29.777Z,8.55
2022-11-10T13:07:33.372Z,7.68
2022-11-10T13:12:35.509Z,8.95
2022-11-10T13:17:56.966Z,9.15
2022-11-10T13:23:00.428Z,8.75
2022-11-10T13:28:02.860Z,8.00
2022-11-10T13:33:39.657Z,8.50
2022-11-10T13:38:44.421Z,9.77
2022-11-10T13:43:50.175Z,9.40
2022-11-10T13:49:15.720Z,8.80
2022-11-10T13:54:48.715Z,9.73
2022-11-10T13:59:53.541Z,9.65
2022-11-10T14:04:55.672Z,9.35
2022-11-10T14:10:06.702Z,8.68
2022-11-10T14:15:16.247Z,9.07
2022-11-10T14:20:28.501Z,9.25
2022-11-10T14:25:36.973Z,11.00
2022-11-10T14:30:39.121Z,8.82
2022-11-10T14:35:49.222Z,10.23
2022-11-10T14:40:55.112Z,10.70
2022-11-10T14:45:57.386Z,9.98
2022-11-10T14:51:04.470Z,9.63
2022-11-10T14:56:15.185Z,10.82
2022-11-10T15:01:25.923Z,11.25
2022-11-10T15:06:29.052Z,11.38
2022-11-10T15:11:39.012Z,9.77
2022-11-10T15:17:00.466Z,9.70
2022-11-10T15:22:07.923Z,11.70
2022-11-10T15:27:23.706Z,9.88
2022-11-10T15:32:32.494Z,11.98
2022-11-10T15:37:34.588Z,10.68
2022-11-10T15:42:38.111Z,10.07
2022-11-10T15:47:42.287Z,11.07
2022-11-10T15:52:44.415Z,9.65
2022-11-10T15:57:48.317Z,9.05
2022-11-10T16:02:50.435Z,10.82
2022-11-10T16:07:52.535Z,11.32
2022-11-10T16:12:56.389Z,11.38
2022-11-10T16:17:58.915Z,9.70
2022-11-10T16:23:01.020Z,10.80
2022-11-10T16:28:05.596Z,10.32
2022-11-10T16:33:07.958Z,10.52
2022-11-10T16:38:18.255Z,11.90
2022-11-10T16:43:22.667Z,13.38
2022-11-10T16:48:28.872Z,12.10
2022-11-10T16:53:32.969Z,11.90
2022-11-10T16:58:36.663Z,11.15
2022-11-10T17:03:41.280Z,10.15
2022-11-10T17:08:45.171Z,10.90
2022-11-10T17:13:48.922Z,12.70
2022-11-10T17:18:52.799Z,12.05
2022-11-10T17:23:56.570Z,9.77
2022-11-10T17:29:00.126Z,13.77
2022-11-10T17:34:03.256Z,11.50
2022-11-10T17:39:06.412Z,11.93
2022-11-10T17:44:15.149Z,10.50
2022-11-10T17:49:18.495Z,11.20
2022-11-10T17:54:24.065Z,11.07
2022-11-10T17:59:27.844Z,10.23
2022-11-10T18:04:32.339Z,12.07
2022-11-10T18:09:35.637Z,12.07
2022-11-10T18:14:40.064Z,12.48
2022-11-10T18:19:42.473Z,12.77
2022-11-10T18:24:48.661Z,13.45
2022-11-10T18:29:59.007Z,13.38
2022-11-10T18:35:02.749Z,12.10
2022-11-10T18:40:08.378Z,10.75
2022-11-10T18:45:14.880Z,10.30
2022-11-10T18:50:19.306Z,8.30
2022-11-10T18:55:22.259Z,10.93
2022-11-10T19:00:28.068Z,9.90
2022-11-10T19:05:32.613Z,12.35
2022-11-10T19:10:35.670Z,11.15
2022-11-10T19:15:43.721Z,10.85
2022-11-10T19:20:49.737Z,9.82
2022-11-10T19:26:02.751Z,11.60
2022-11-10T19:31:08.893Z,10.75
2022-11-10T19:36:14.130Z,10.73
2022-11-10T19:41:19.480Z,9.90
2022-11-10T19:46:27.968Z,11.40
2022-11-10T19:51:30.881Z,11.52
2022-11-10T19:56:41.694Z,11.45
2022-11-10T20:01:46.631Z,11.52
2022-11-10T20:07:09.796Z,10.82
2022-11-10T20:12:13.107Z,12.70
2022-11-10T20:17:18.686Z,10.20
2022-11-10T20:22:21.930Z,10.25
2022-11-10T20:27:26.447Z,8.27
2022-11-10T20:32:38.543Z,9.80
2022-11-10T20:37:41.739Z,9.13
2022-11-10T20:42:44.506Z,9.25
2022-11-10T20:47:50.065Z,10.43
2022-11-10T20:52:52.623Z,11.25
2022-11-10T20:57:57.430Z,11.77
2022-11-10T21:03:01.335Z,11.68
2022-11-10T21:08:03.516Z,12.38
2022-11-10T21:13:06.456Z,11.05
2022-11-10T21:18:10.395Z,10.65
2022-11-10T21:23:12.964Z,11.65
2022-11-10T21:28:15.302Z,12.15
2022-11-10T21:33:19.164Z,10.77
2022-11-10T21:38:21.596Z,10.73
2022-11-10T21:43:23.926Z,9.00
2022-11-10T21:48:27.584Z,10.07
2022-11-10T21:53:33.179Z,10.40
2022-11-10T21:58:35.869Z,10.32
2022-11-10T22:03:39.872Z,11.38
2022-11-10T22:08:44.134Z,11.00
2022-11-10T22:14:03.019Z,9.88
2022-11-10T22:19:09.120Z,11.23
2022-11-10T22:24:28.042Z,9.40
2022-11-10T22:29:32.356Z,8.13
2022-11-10T22:34:35.852Z,9.52
2022-11-10T22:39:55.298Z,11.10
2022-11-10T22:44:58.376Z,10.20
2022-11-10T22:50:05.105Z,11.65
2022-11-10T22:55:08.197Z,10.02
2022-11-10T23:00:11.722Z,9.60
2022-11-10T23:05:15.367Z,9.73
2022-11-10T23:10:17.661Z,10.73
2022-11-10T23:15:19.804Z,11.98
2022-11-10T23:20:23.373Z,13.15
2022-11-10T23:25:25.539Z,12.18
2022-11-10T23:30:27.682Z,12.70
2022-11-10T23:35:32.910Z,12.90
2022-11-10T23:40:35.193Z,14.10
2022-11-10T23:46:05.478Z,11.63
2022-11-10T23:51:00.940Z,13.13
2022-11-10T23:56:05.690Z,12.90
